Capitol, South Carolina
Current Conditions -  °F | °C
As of 4:53 PM on Sunday 23 Nov 2014 (Local Time) from KCUB Reporting Station
Overcast Overcast  
Wind Chill: 64°   Ceiling: 600
Heat Index: 64°   Visibility: 10mi
Dew Point: 62°   Wind: 8mph
Humidity: 93%   Direction: 140°SE
Pressure: 29.85"   Gusts: NA
Location:  34.0004°N, 81.0344°W
Report Text: KCUB 232153Z AUTO 14007KT 10SM OVC006 18/17 A2985 RMK AO2 RAE25 CIG 005V009 SLP107 P0002 T01780167
Loading
Personal Weather Stations






























Interactive Weather Map New forecast layout! Learn more

10-Day Weather Forecast

Advertisements
Track Severe Weather on mobile